Home > Products > Valid Products > MTR

000
SAUS41 KLWX 160407
MTRRSP
METAR KRSP 160354Z AUTO 36007G24KT 320V030 10SM OVC033 M02/M03 A2998
RMK AO2 PK WND 35030/0257 SLP165 T10221033 $





000
SAUS41 KLWX 160400
MTRRYT
METAR KRYT 160353Z AUTO 01011G21KT 340V050 10SM SCT043 00/M09 A3004
RMK AO2 SLP175 T00001089 $





000
SAUS41 KLWX 160359 COR
MTRDMH
METAR KDMH 160354Z AUTO 04/M04 A3003 RMK AO1 SLP170 T00391039





000
SAUS41 KLWX 160358 COR
MTRNAK
METAR KNAK 160354Z AUTO 33020G26KT 10SM FEW110 05/03 A3000 RMK AO2
PK WND 34026/0354 SLP161 T00500028





000
SAUS41 KLWX 160307
MTRRSP
METAR KRSP 160254Z AUTO 35013G35KT 320V030 10SM BKN037 OVC110
M02/M02 A2994 RMK AO2 PK WND 33036/0209 SLP152 60000 T10171022 51040
$





000
SAUS41 KLWX 160300
MTRRYT
METAR KRYT 160253Z AUTO 36007G18KT 290V030 10SM BKN044 01/M07 A2999
RMK AO2 PK WND 01026/0219 SLP158 60000 T00111072 51041 $





000
SAUS41 KLWX 160259 COR
MTRDMH
METAR KDMH 160254Z AUTO 04/M01 A3001 RMK AO1 SLP162 60014 T00391006
53056





000
SAUS41 KLWX 160256
MTRNAK
METAR KNAK 160254Z AUTO 33013KT 10SM OVC095 04/04 A2999 RMK AO2
RAE16 SLP157 P0001 60013 T00440039 51043





000
SAUS41 KLWX 160216 COR
MTRNAK
SPECI KNAK 160212Z AUTO 34013G21KT 10SM -RA FEW016 BKN035 OVC075
04/03 A3000 RMK AO2 P0001 T00390033





000
SAUS41 KLWX 160207
MTRRSP
METAR KRSP 160154Z AUTO 34019G35KT 300V010 10SM SCT030 BKN035 OVC100
M01/M01 A2991 RMK AO2 PK WND 35035/0153 SLP142 T10111011 $





000
SAUS41 KLWX 160200
MTRRYT
METAR KRYT 160153Z AUTO 36008KT 10SM OVC035 02/M05 A2997 RMK AO2
SLP151 T00171050 $





000
SAUS41 KLWX 160159 COR
MTRDMH
METAR KDMH 160154Z AUTO 03/01 A2995 RMK AO1 SLP143 P0003 T00330011





000
SAUS41 KLWX 160158 COR
MTRNAK
METAR KNAK 160154Z AUTO 35014KT 4SM -RA BR SCT016 OVC026 04/04 A2998
RMK AO2 PRESRR SLP155 P0003 T00390039





000
SAUS41 KLWX 160140
MTRNAK
SPECI KNAK 160139Z AUTO 34017KT 6SM -RA BR FEW016 SCT022 OVC034
04/04 A2996 RMK AO2 P0002 T00390039





000
SAUS41 KLWX 160136
MTRRSP
SPECI KRSP 160123Z AUTO 35017G29KT 10SM FEW028 SCT034 OVC110 M01/
A2989 RMK AO2 PK WND 33030/0101 $





000
SAUS41 KLWX 160108
MTRRSP
METAR KRSP 160054Z AUTO 34011G30KT 9SM BKN023 OVC029 M01/ A2990 RMK
AO2 PK WND 35033/0034 SNE08 SLP135 P0000 T1006 $





000
SAUS41 KLWX 160100
MTRRYT
METAR KRYT 160053Z AUTO 30009G14KT 270V330 10SM SCT039 OVC110 02/M04
A2993 RMK AO2 SNE14 SLP138 P0000 T00221044 $





000
SAUS41 KLWX 160059 COR
MTRDMH
METAR KDMH 160054Z AUTO 03/01 A2990 RMK AO1 SLP124 P0011 T00280006





000
SAUS41 KLWX 160058 COR
MTRNAK
METAR KNAK 160054Z AUTO 32014G23KT 4SM -RA BR SCT015 BKN020 OVC026
04/04 A2992 RMK AO2 PK WND 32028/0027 SLP134 P0009 T00440044





000
SAUS41 KLWX 160057 COR
MTRNAK
METAR KNAK 160054Z AUTO 32014G23KT 4SM -RA BR SCT015 BKN020 OVC026
04/04 A2992 RMK AO2 PK WND 32028/0027 SLP134 P0009 T00440044





000
SAUS41 KLWX 160044 COR
MTRNAK
SPECI KNAK 160040Z AUTO 33017KT 4SM -RA BR BKN018 BKN031 OVC070
05/04 A2991 RMK AO2 PK WND 32028/0027 P0006 T00500044





000
SAUS41 KLWX 160042 COR
MTRNAK
SPECI KNAK 160040Z AUTO 33017KT 4SM -RA BR BKN018 BKN031 OVC070
05/04 A2991 RMK AO2 PK WND 32028/0027 P0006 T00500044





000
SAUS41 KLWX 160041
MTRNAK
SPECI KNAK 160040Z AUTO 33017KT 4SM -RA BR BKN018 BKN031 OVC070
05/04 A2991 RMK AO2 PK WND 32028/0027 P0006 T00500044





000
SAUS41 KLWX 160031
MTRRSP
SPECI KRSP 160017Z AUTO 35014G27KT 330V050 10SM FEW006 BKN027 OVC060
M01/ A2983 RMK AO2 PK WND 35027/0014 SNE08 P0000 $





000
SAUS41 KLWX 160023
MTRRSP
SPECI KRSP 160010Z AUTO 35012G24KT 320V030 9SM SCT004 SCT010 OVC048
M01/ A2983 RMK AO2 SNE08 P0000 $





000
SAUS41 KLWX 160023
MTRRYT
SPECI KRYT 160016Z AUTO VRB05KT 9SM SCT026 BKN035 OVC070 02/M02
A2988 RMK AO2 SNE14 P0000 $





000
SAUS41 KLWX 160018 COR
MTRNAK
SPECI KNAK 160015Z AUTO 33019G26KT 5SM -RA BR SCT018 BKN030 OVC050
06/06 A2988 RMK AO2 PK WND 33026/0015 P0003 T00610056





000
SAUS41 KLWX 160017 COR
MTRNAK
SPECI KNAK 160015Z AUTO 33019G26KT 5SM -RA BR SCT018 BKN030 OVC050
06/06 A2988 RMK AO2 PK WND 33026/0015 P0003 T00610056





000
SAUS41 KLWX 160016
MTRNAK
SPECI KNAK 160015Z AUTO 33019G26KT 5SM -RA BR SCT018 BKN030 OVC050
06/06 A2988 RMK AO2 PK WND 33026/0015 P0003 T00610056





000
SAUS41 KLWX 160015
MTRRSP
SPECI KRSP 160002Z AUTO 34015G22KT 2SM -SN BKN006 BKN033 OVC050 M01/
A2983 RMK AO2 PRESRR P0000 $





000
SAUS41 KLWX 160012
MTRRYT
SPECI KRYT 160005Z AUTO VRB05KT 4SM -SN BKN026 BKN033 OVC075 02/M02
A2988 RMK AO2 P0000 $





000
SAUS41 KLWX 160008
MTRRSP
METAR KRSP 152354Z AUTO 35010G28KT 330V030 3/4SM -SN OVC008 M01/
A2982 RMK AO2 PK WND 35032/2342 SLP108 P0003 60024 T1006 10050 21006
53040 $





000
SAUS41 KLWX 160000
MTRRYT
METAR KRYT 152353Z AUTO 30007G19KT 250V340 2 1/2SM -SN BR OVC026
02/00 A2986 RMK AO2 SLP116 P0001 60015 T00170000 10061 20017 53008 $





000
SAUS41 KLWX 152359 COR
MTRDMH
METAR KDMH 152354Z AUTO 05/03 A2984 RMK AO1 SLP106 P0005 60034
T00500028 10161 20050 51049





000
SAUS41 KLWX 152358 COR
MTRNAK
METAR KNAK 152354Z AUTO 33012G25KT 6SM -RA BR BKN022 BKN030 OVC070
07/06 A2986 RMK AO2 SLP114 P0003 60019 T00670061 10178 20067 51033





000
SAUS41 KLWX 152345
MTRRSP
SPECI KRSP 152332Z AUTO 35014G25KT 300V030 3/4SM -SN BKN008 OVC016
M01/ A2979 RMK AO2 P0001 $





000
SAUS41 KLWX 152318
MTRRSP
SPECI KRSP 152304Z AUTO 34012G22KT 1/2SM SN BKN006 OVC016 00/ A2976
RMK AO2 P0000 $





000
SAUS41 KLWX 152310 COR
MTRNAK
SPECI KNAK 152306Z AUTO 32015G25KT 5SM -RA BR FEW034 OVC060 07/07
A2981 RMK AO2 P0002 T00720067





000
SAUS41 KLWX 152307
MTRRSP
METAR KRSP 152254Z AUTO 35015G27KT 1/4SM +SN SCT006 OVC010 00/ A2975
RMK AO2 PK WND 34032/2225 SLP085 P0009 T0000 $





000
SAUS41 KLWX 152300
MTRRYT
METAR KRYT 152253Z AUTO 35007KT 320V030 7SM -SN FEW012 OVC022 02/M01
A2983 RMK AO2 RAE17SNB17 SLP105 P0005 T00221006 $





000
SAUS41 KLWX 152259 COR
MTRDMH
METAR KDMH 152254Z AUTO 07/04 A2980 RMK AO1 SLP092 P0007 T00670039





000
SAUS41 KLWX 152258
MTRRSP
SPECI KRSP 152245Z AUTO 34014G29KT 3/4SM -SN SCT004 OVC008 00/ A2977
RMK AO2 PK WND 34032/2225 P0008 $





000
SAUS41 KLWX 152257
MTRNAK
METAR KNAK 152254Z AUTO 32017G27KT 2 1/2SM -RA BR BKN060 OVC070
07/06 A2980 RMK AO2 PK WND 33027/2252 SLP092 P0007 T00720061





000
SAUS41 KLWX 152247
MTRNAK
SPECI KNAK 152246Z AUTO 32017G24KT 2 1/2SM RA BR FEW016 OVC060 07/07
A2980 RMK AO2 PK WND 34026/2210 P0005 T00720067





000
SAUS41 KLWX 152240
MTRRYT
SPECI KRYT 152233Z AUTO VRB04KT 2SM -SN BR FEW010 OVC020 02/01 A2985
RMK AO2 RAE17SNB17 P0003 $





000
SAUS41 KLWX 152226
MTRRYT
SPECI KRYT 152225Z AUTO VRB06G23KT 3SM -SN FEW014 SCT020 OVC026
03/00 A2984 RMK AO2 RAE17SNB17 PRESRR P0001 $





000
SAUS41 KLWX 152219
MTRRSP
SPECI KRSP 152212Z AUTO 34008G28KT 310V020 1/2SM SN OVC004 01/ A2975
RMK AO2 PK WND 34030/2202 PRESRR P0002 $





000
SAUS41 KLWX 152219
MTRRYT
SPECI KRYT 152212Z AUTO 31006KT 9SM -RA FEW019 SCT025 OVC037 03/00
A2979 RMK AO2 P0000 $





000
SAUS41 KLWX 152214 COR
MTRNAK
SPECI KNAK 152210Z AUTO 33020G26KT 5SM -RA BR FEW018 BKN034 OVC060
08/07 A2977 RMK AO2 PK WND 34026/2210 P0000 T00780067





000
SAUS41 KLWX 152212 COR
MTRNAK
SPECI KNAK 152210Z AUTO 33020G26KT 5SM -RA BR FEW018 BKN034 OVC060
08/07 A2977 RMK AO2 PK WND 34026/2210 P0000 T00780067





000
SAUS41 KLWX 152207
MTRRSP
METAR KRSP 152154Z AUTO 34013G32KT 2SM -SN BKN006 OVC011 01/ A2972
RMK AO2 PK WND 34033/2143 RAE27SNB27 SLP074 P0003 T0011 $





000
SAUS41 KLWX 152200
MTRRYT
METAR KRYT 152153Z AUTO VRB06KT 6SM -RA FEW019 BKN026 OVC040 04/01
A2980 RMK AO2 RAB00 SLP094 P0003 T00390006 $





000
SAUS41 KLWX 152159 COR
MTRDMH
METAR KDMH 152154Z AUTO 08/04 A2975 RMK AO1 SLP075 P0004 T00780044





000
SAUS41 KLWX 152158 COR
MTRNAK
METAR KNAK 152154Z AUTO 34018G24KT 4SM -RA BR FEW016 BKN025 OVC031
08/07 A2977 RMK AO2 PK WND 35030/2112 RAB05 SLP081 P0003 T00830067





000
SAUS41 KLWX 152151
MTRRSP
SPECI KRSP 152138Z AUTO 34011G22KT 2SM -SN BKN009 OVC014 01/ A2974
RMK AO2 PK WND 33032/2100 RAE27SNB27 P0002 $





000
SAUS41 KLWX 152132
MTRRSP
SPECI KRSP 152119Z AUTO 33012G19KT 6SM -RA BKN009 BKN014 OVC060 02/
A2973 RMK AO2 PK WND 33032/2100 PRESRR P0000 $





000
SAUS41 KLWX 152107
MTRRSP
METAR KRSP 152054Z AUTO 34013G32KT 6SM -RA BKN011 OVC055 02/ A2969
RMK AO2 PK WND 33034/2036 SLP062 P0003 60009 T0022 53035 $





000
SAUS41 KLWX 152100
MTRRYT
METAR KRYT 152053Z AUTO VRB06G16KT 10SM FEW024 OVC065 05/01 A2974
RMK AO2 RAE50 SLP073 P0002 60006 T00500006 51042 $





000
SAUS41 KLWX 152059 COR
MTRDMH
METAR KDMH 152054Z AUTO 08/05 A2970 RMK AO1 SLP056 P0008 60018
T00830050 53051





000
SAUS41 KLWX 152058 COR
MTRNAK
METAR KNAK 152054Z AUTO 33019G29KT 7SM SCT018 BKN024 OVC041 10/08
A2971 RMK AO2 PK WND 34029/2052 RAE44 SLP061 P0003 60006 T01000078
51028





000
SAUS41 KLWX 152050
MTRNAK
SPECI KNAK 152049Z AUTO 33019G24KT 6SM BR FEW018 BKN024 OVC041 10/08
A2968 RMK AO2 RAE44 P0003





000
SAUS41 KLWX 152007
MTRRSP
METAR KRSP 151954Z AUTO 34014G33KT 310V020 4SM -RA BR BKN060 OVC085
03/01 A2965 RMK AO2 PK WND 33042/1938 RAE14B31 SLP047 P0002
T00280011 $





000
SAUS41 KLWX 152000
MTRRYT
METAR KRYT 151953Z AUTO VRB06G22KT 7SM -RA OVC060 06/02 A2969 RMK
AO2 RAE24B45 SLP055 P0001 T00560017 $





000
SAUS41 KLWX 151959 COR
MTRDMH
METAR KDMH 151954Z AUTO 11/07 A2965 RMK AO1 SLP041 P0001 T01060072





000
SAUS41 KLWX 151957 COR
MTRNAK
METAR KNAK 151954Z AUTO 29008G18KT 9SM -RA OVC035 11/09 A2966 RMK
AO2 RAE17B50 SLP045 P0001 T01110089





000
SAUS41 KLWX 151946
MTRRSP
SPECI KRSP 151933Z AUTO 34018G41KT 8SM -RA FEW006 BKN055 OVC090
04/02 A2964 RMK AO2 PK WND 35041/1927 RAE14B31 P0001 $





000
SAUS41 KLWX 151936
MTRRSP
SPECI KRSP 151923Z AUTO 33015G37KT 10SM BKN006 BKN049 OVC090 04/02
A2963 RMK AO2 PK WND 34039/1855 RAE14 P0001 $





000
SAUS41 KLWX 151924
MTRRSP
SPECI KRSP 151911Z AUTO 33021G38KT 7SM -RA SCT006 BKN050 OVC065
04/03 A2962 RMK AO2 PK WND 34039/1855 P0001 $





000
SAUS41 KLWX 151912
MTRNAK
SPECI KNAK 151910Z AUTO 30009G18KT 10SM -RA FEW027 BKN034 OVC046
12/09 A2962 RMK AO2 P0001 T01170094





000
SAUS41 KLWX 151907
MTRRSP
METAR KRSP 151854Z AUTO 33016G39KT 3SM -RA BR BKN002 BKN040 OVC070
04/03 A2960 RMK AO2 PK WND 33039/1848 RAB00 SLP030 P0004 T00390028 $





000
SAUS41 KLWX 151900
MTRRYT
METAR KRYT 151853Z AUTO 28009G21KT 230V330 7SM -RA OVC055 06/03
A2967 RMK AO2 PK WND 32028/1802 RAB15 SLP047 P0003 T00610033 $





000
SAUS41 KLWX 151859 COR
MTRDMH
METAR KDMH 151854Z AUTO 12/09 A2959 RMK AO1 SLP019 P0009 T01220094





000
SAUS41 KLWX 151856
MTRRSP
SPECI KRSP 151843Z AUTO 33022G37KT 2SM -RA BR BKN002 OVC036 04/03
A2959 RMK AO2 PK WND 33039/1803 RAB00 P0003 $





000
SAUS41 KLWX 151856 COR
MTRNAK
METAR KNAK 151854Z AUTO 29013G21KT 5SM -RA BR SCT018 SCT024 OVC029
12/10 A2962 RMK AO2 PK WND 30029/1838 WSHFT 1831 RAB40 SLP033 P0002
T01220100





000
SAUS41 KLWX 151847
MTRRSP
SPECI KRSP 151834Z AUTO 32017G34KT 280V350 1 3/4SM -RA BR BKN002
OVC039 04/03 A2959 RMK AO2 PK WND 33039/1803 RAB00 P0002 $





000
SAUS41 KLWX 151843
MTRNAK
SPECI KNAK 151842Z AUTO 31015G29KT 5SM -RA SCT017 BKN027 OVC120
14/11 A2961 RMK AO2 PK WND 30029/1838 RAB40 P0001 T01390111





000
SAUS41 KLWX 151832
MTRRSP
SPECI KRSP 151825Z AUTO 32018G33KT 2 1/2SM -RA BR BKN002 BKN009
OVC055 04/03 A2959 RMK AO2 PK WND 33039/1803 RAB00 P0001 $





000
SAUS41 KLWX 151831
MTRRYT
SPECI KRYT 151824Z AUTO 28011G20KT 250V310 6SM -RA BR SCT011 BKN047
OVC055 07/04 A2965 RMK AO2 PK WND 32028/1802 RAB15 P0001 $





000
SAUS41 KLWX 151811
MTRRYT
SPECI KRYT 151804Z AUTO 30012G28KT 10SM BKN011 OVC017 07/05 A2963
RMK AO2 PK WND 32028/1802 $





000
SAUS41 KLWX 151807
MTRRSP
METAR KRSP 151754Z AUTO 32013G36KT 10SM SCT006 BKN033 OVC090 05/03
A2958 RMK AO2 PK WND 33039/1720 RAE00 SLP024 P0000 60026 T00500033
10156 20050 53000 $





000
SAUS41 KLWX 151759 COR
MTRDMH
METAR KDMH 151754Z AUTO 17/16 A2955 RMK AO1 SLP006 P0059 60181
T01670161 10189 20167 56020





000
SAUS41 KLWX 151758 COR
MTRNAK
METAR KNAK 151754Z AUTO 17012G21KT 10SM FEW031 SCT048 BKN110 17/16
A2955 RMK AO2 RAB02E38 SLP008 P0002 60045 T01720156 10172 20161
56019





000
SAUS41 KLWX 151754
MTRRYT
METAR KRYT 151753Z AUTO 29009G21KT 240V330 8SM BKN015 OVC095 08/05
A2962 RMK AO2 PK WND 27026/1717 SLP027 60022 T00780050 10183 20078
53030 $





000
SAUS41 KLWX 151747
MTRRYT
SPECI KRYT 151740Z AUTO 26008G21KT 200V310 9SM BKN017 OVC100 08/06
A2962 RMK AO2 PK WND 27026/1717 $





000
SAUS41 KLWX 151746
MTRRSP
SPECI KRSP 151739Z AUTO 33019G38KT 10SM SCT006 SCT033 BKN090 06/04
A2958 RMK AO2 PK WND 33039/1720 RAE00 P0000 $





000
SAUS41 KLWX 151745
MTRRSP
SPECI KRSP 151732Z AUTO 32021G36KT 10SM SCT002 BKN008 OVC095 07/04
A2958 RMK AO2 PK WND 33039/1720 RAE00 P0000 $





000
SAUS41 KLWX 151723
MTRNAK
SPECI KNAK 151722Z AUTO 17016KT 5SM -RA BR SCT011 BKN065 OVC110
17/16 A2955 RMK AO2 RAB02 P0001 T01670156





000
SAUS41 KLWX 151717
MTRRSP
SPECI KRSP 151707Z AUTO 33017G37KT 4SM BR BKN002 OVC006 07/06 A2956
RMK AO2 PK WND 34037/1704 RAE00 P0000 $





000
SAUS41 KLWX 151708
MTRRSP
METAR KRSP 151654Z AUTO 32017G31KT 290V350 6SM -RA BR BKN006 OVC012
08/07 A2956 RMK AO2 PK WND 32036/1628 WSHFT 1553 RAE26B51 SLP012
P0014 T00780067 $





000
SAUS41 KLWX 151700
MTRRYT
METAR KRYT 151653Z AUTO 29012G24KT 9SM FEW024 BKN043 OVC090 11/07
A2960 RMK AO2 RAB06E37 SLP019 P0011 T01060072 $





000
SAUS41 KLWX 151659 COR
MTRDMH
METAR KDMH 151654Z AUTO 19/18 A2956 RMK AO1 SLP011 P0002 T01890178





000
SAUS41 KLWX 151655
MTRNAK
METAR KNAK 151654Z AUTO 18015G21KT 6SM BR OVC007 17/16 A2957 RMK AO2
SLP015 T01670156





000
SAUS41 KLWX 151649
MTRRSP
SPECI KRSP 151636Z AUTO 33016G36KT 9SM SCT002 OVC012 09/07 A2955 RMK
AO2 PK WND 32036/1628 WSHFT 1553 RAE26 P0014 $





000
SAUS41 KLWX 151637
MTRRSP
SPECI KRSP 151630Z AUTO 33015G36KT 290V360 5SM BR BKN002 BKN007
OVC012 09/08 A2955 RMK AO2 PK WND 32036/1628 WSHFT 1553 RAE26 P0014
$





000
SAUS41 KLWX 151630
MTRRYT
SPECI KRYT 151623Z AUTO 27012G18KT 210V340 3SM -RA BR FEW015 BKN049
OVC060 11/09 A2959 RMK AO2 RAB06 P0011 $





000
SAUS41 KLWX 151630
MTRRSP
SPECI KRSP 151617Z AUTO 32016G27KT 2SM -RA BR OVC002 09/08 A2954 RMK
AO2 PK WND 31029/1557 WSHFT 1553 P0013 $





000
SAUS41 KLWX 151621
MTRRSP
SPECI KRSP 151607Z AUTO 32014G28KT 1/2SM +RA FG OVC004 10/09 A2956
RMK AO2 PK WND 31029/1557 WSHFT 1553 PRESFR P0012 $





000
SAUS41 KLWX 151618
MTRRYT
SPECI KRYT 151611Z AUTO 25016G25KT 210V300 1 3/4SM RA BR SCT015
BKN035 OVC100 13/11 A2958 RMK AO2 RAB06 P0008 $





000
SAUS41 KLWX 151616
MTRNAK
SPECI KNAK 151614Z AUTO 17014KT 8SM BKN008 BKN027 17/16 A2957 RMK
AO2 T01670156





000
SAUS41 KLWX 151613
MTRRSP
SPECI KRSP 151559Z AUTO 32014G32KT 260V350 1 1/2SM RA BR BKN004
BKN007 OVC013 12/12 A2958 RMK AO2 PK WND 31029/1557 P0003 $





000
SAUS41 KLWX 151605
MTRNAK
SPECI KNAK 151604Z AUTO 18012KT 10SM SCT007 BKN027 17/16 A2958 RMK
AO2 T01720161





000
SAUS41 KLWX 151600
MTRRYT
METAR KRYT 151553Z AUTO 22006KT 10SM FEW015 SCT039 OVC095 18/15
A2953 RMK AO2 SLP990 T01830150 $





000
SAUS41 KLWX 151559 COR
MTRDMH
METAR KDMH 151554Z AUTO 18/17 A2957 RMK AO1 SLP012 P0002 T01780167





000
SAUS41 KLWX 151557
MTRNAK
METAR KNAK 151554Z AUTO 17012KT 10SM BKN006 BKN028 17/16 A2957 RMK
AO2 RAB04E23 CIG 006V009 SLP016 P0000 T01720161





000
SAUS41 KLWX 151535
MTRRSP
SPECI KRSP 151522Z AUTO VRB05G17KT 10SM OVC002 15/14 A2957 RMK AO2 $





000
SAUS41 KLWX 151527
MTRRSP
SPECI KRSP 151514Z AUTO 22008G17KT 2SM BR OVC002 15/14 A2958 RMK AO2
VIS 1V5 $





000
SAUS41 KLWX 151507
MTRRSP
METAR KRSP 151454Z AUTO 23007G17KT 190V280 1/4SM FG VV002 15/14
A2959 RMK AO2 RAE26 SLP017 P0001 60012 T01500144 55008 $





000
SAUS41 KLWX 151500
MTRRYT
METAR KRYT 151453Z AUTO 23004KT 10SM SCT015 BKN020 OVC095 18/16
A2955 RMK AO2 RAE26 SLP997 P0001 60011 T01780156 55008 $





000
SAUS41 KLWX 151459 COR
MTRDMH
METAR KDMH 151454Z AUTO 17/17 A2961 RMK AO1 SLP026 P0057 60118
T01720167 58008





000
SAUS41 KLWX 151456
MTRNAK
METAR KNAK 151454Z AUTO 19012G22KT 10SM OVC007 17/16 A2961 RMK AO2
RAE54 CIG 006V011 SLP027 P0022 60043 T01670161 56014





000
SAUS41 KLWX 151451
MTRRSP
SPECI KRSP 151438Z AUTO 22010G18KT 190V260 1/4SM FG OVC002 15/14
A2959 RMK AO2 RAE26 P0001 $





000
SAUS41 KLWX 151449
MTRNAK
SPECI KNAK 151448Z AUTO 19014G21KT 4SM -RA BR OVC007 17/16 A2961 RMK
AO2 CIG 006V011 P0022





000
SAUS41 KLWX 151448
MTRRYT
SPECI KRYT 151441Z AUTO 22005KT 10SM BKN015 BKN020 OVC090 17/16
A2955 RMK AO2 RAE26 P0001 $





000
SAUS41 KLWX 151444
MTRRSP
SPECI KRSP 151431Z AUTO 23009G17KT 190V260 1SM BR OVC002 15/14 A2959
RMK AO2 VIS 1/4V5 RAE26 P0001 $





000
SAUS41 KLWX 151444 COR
MTRNAK
SPECI KNAK 151440Z AUTO 17008G19KT 1 1/4SM +RA BR BKN007 OVC012
16/16 A2960 RMK AO2 P0021 T01610161





000
SAUS41 KLWX 151412
MTRNAK
SPECI KNAK 151411Z AUTO 17014G23KT 2SM +RA BR OVC007 16/16 A2961 RMK
AO2 P0008 T01610156





000
SAUS41 KLWX 151407
MTRRSP
METAR KRSP 151354Z AUTO 22009G17KT 6SM -RA BR OVC004 15/14 A2958 RMK
AO2 SLP016 P0005 T01500139 $





000
SAUS41 KLWX 151402
MTRNAK
SPECI KNAK 151401Z AUTO 17015G21KT 3SM -RA BR OVC007 17/16 A2962 RMK
AO2 P0002 T01670156





000
SAUS41 KLWX 151400
MTRRYT
METAR KRYT 151353Z AUTO VRB06KT 10SM -RA OVC100 17/15 A2955 RMK AO2
SLP996 P0005 T01720150 $





000
SAUS41 KLWX 151359 COR
MTRDMH
METAR KDMH 151354Z AUTO 17/16 A2964 RMK AO1 SLP037 P0060 T01670161





000
SAUS41 KLWX 151358 COR
MTRNAK
METAR KNAK 151354Z AUTO 17014G21KT 2 1/2SM -RA BR OVC007 17/16 A2962
RMK AO2 PK WND 16028/1328 SLP031 P0013 T01670156





000
SAUS41 KLWX 151345
MTRNAK
SPECI KNAK 151344Z AUTO 17016G23KT 2SM RA BR OVC006 16/16 A2962 RMK
AO2 PK WND 16028/1328 P0010 T01610156





000
SAUS41 KLWX 151343
MTRRSP
SPECI KRSP 151329Z AUTO 23009G18KT 8SM -RA OVC004 15/14 A2960 RMK
AO2 P0003 $





000
SAUS41 KLWX 151308
MTRRSP
METAR KRSP 151254Z AUTO 23009G20KT 200V270 7SM -RA BKN006 BKN080
OVC095 15/14 A2961 RMK AO2 CIG 004V010 SLP024 P0006 T01500139 $





000
SAUS41 KLWX 151300
MTRRYT
METAR KRYT 151253Z AUTO 22007G16KT 10SM -RA OVC100 17/15 A2957 RMK
AO2 SLP003 P0005 T01720150 $





000
SAUS41 KLWX 151259 COR
MTRDMH
METAR KDMH 151254Z AUTO 18/17 A2960 RMK AO1 SLP022 P0001 T01830167





000
SAUS41 KLWX 151258 COR
MTRNAK
METAR KNAK 151254Z AUTO 17015G24KT 4SM -RA BR OVC007 17/16 A2963 RMK
AO2 PK WND 16029/1206 RAB02 SLP036 P0008 T01670156





000
SAUS41 KLWX 151253
MTRRSP
SPECI KRSP 151240Z AUTO 25013G22KT 8SM -RA SCT006 BKN080 OVC095
15/14 A2961 RMK AO2 P0005 $





000
SAUS41 KLWX 151239 COR
MTRNAK
SPECI KNAK 151234Z AUTO 17017G26KT 1 3/4SM RA BR OVC008 17/16 A2964
RMK AO2 PK WND 16029/1206 RAB02 P0005 T01670161





000
SAUS41 KLWX 151230
MTRRYT
SPECI KRYT 151223Z AUTO 22008G16KT 8SM -RA FEW015 SCT026 OVC095
18/15 A2956 RMK AO2 P0004 $





000
SAUS41 KLWX 151228
MTRRSP
SPECI KRSP 151215Z AUTO 26011G22KT 7SM -RA BKN006 OVC080 15/14 A2960
RMK AO2 P0003 $





000
SAUS41 KLWX 151207
MTRRSP
METAR KRSP 151154Z AUTO 23012G27KT 180V260 4SM -RA BR BKN004 BKN010
OVC085 16/14 A2962 RMK AO2 PK WND 24027/1148 SLP025 P0014 60059
70060 T01560144 10167 20150 58018 $





000
SAUS41 KLWX 151200
MTRRYT
METAR KRYT 151153Z AUTO 25008KT 6SM -RA BR SCT010 OVC019 17/16 A2957
RMK AO2 SLP006 P0014 60039 70039 T01720156 10194 20167 58019 $





000
SAUS41 KLWX 151159 COR
MTRDMH
METAR KDMH 151154Z AUTO 18/17 A2963 RMK AO1 SLP034 60001 70003
T01780167 10183 20172 58027





000
SAUS41 KLWX 151155
MTRNAK
METAR KNAK 151154Z AUTO 17017G28KT 9SM OVC009 17/16 A2965 RMK AO2 PK
WND 16028/1125 SLP041 T01720161 10172 20156 58021





000
SAUS41 KLWX 151137
MTRRYT
SPECI KRYT 151136Z AUTO 26006KT 6SM -RA BR BKN010 OVC019 17/16 A2957
RMK AO2 P0012 $





000
SAUS41 KLWX 151120
MTRRYT
SPECI KRYT 151113Z AUTO 00000KT 4SM -RA BR FEW010 SCT015 OVC021
17/16 A2958 RMK AO2 P0009 $





000
SAUS41 KLWX 151114
MTRRSP
SPECI KRSP 151107Z AUTO 20012G22KT 3SM -RA BR OVC004 15/14 A2962 RMK
AO2 P0004 $





000
SAUS41 KLWX 151112
MTRRYT
SPECI KRYT 151105Z AUTO 23007KT 200V260 2 1/2SM RA BR SCT012 BKN019
OVC027 17/16 A2958 RMK AO2 P0007 $





000
SAUS41 KLWX 151107
MTRRSP
METAR KRSP 151054Z AUTO 21010G20KT 170V350 2SM RA BR OVC004 15/14
A2962 RMK AO2 PK WND 22032/1024 SLP028 P0021 T01500144 $





000
SAUS41 KLWX 151100
MTRRYT
METAR KRYT 151053Z AUTO 24007KT 200V280 5SM -RA BR SCT014 OVC019
17/15 A2959 RMK AO2 SLP010 P0015 T01720150 $





000
SAUS41 KLWX 151100
MTRRSP
SPECI KRSP 151047Z AUTO 20012G23KT 1 3/4SM +RA BR OVC004 15/14 A2963
RMK AO2 PK WND 22032/1024 P0018 $





000
SAUS41 KLWX 151059 COR
MTRDMH
METAR KDMH 151054Z AUTO 18/16 A2967 RMK AO1 SLP045 P0001 T01780161





000
SAUS41 KLWX 151058 COR
MTRNAK
METAR KNAK 151054Z AUTO 17016G25KT 9SM BKN008 OVC014 17/16 A2968 RMK
AO2 SLP051 T01670156





000
SAUS41 KLWX 151046
MTRRSP
SPECI KRSP 151033Z AUTO 20013G32KT 180V240 5SM -RA BR OVC004 16/14
A2964 RMK AO2 PK WND 22032/1024 CIG 003V008 P0009 $





000
SAUS41 KLWX 151008
MTRRSP
METAR KRSP 150954Z AUTO 22015G25KT 3SM -RA BR OVC006 15/14 A2967 RMK
AO2 PK WND 22030/0924 RAB01 SLP043 P0021 T01500144 $





000
SAUS41 KLWX 151000
MTRRYT
METAR KRYT 150953Z AUTO 25008KT 5SM -RA BR BKN016 OVC023 17/15 A2963
RMK AO2 RAB12 SLP023 P0009 T01720150 $





000
SAUS41 KLWX 150959 COR
MTRDMH
METAR KDMH 150954Z AUTO 17/16 A2969 RMK AO1 SLP054 T01720156





000
SAUS41 KLWX 150958 COR
MTRNAK
METAR KNAK 150954Z AUTO 17015G22KT 8SM OVC007 16/14 A2969 RMK AO2
SLP057 T01560144





000
SAUS41 KLWX 150948
MTRRSP
SPECI KRSP 150935Z AUTO 21016G25KT 170V250 2 1/2SM RA BR OVC004
15/14 A2966 RMK AO2 PK WND 22030/0924 RAB01 P0011 $





000
SAUS41 KLWX 150927
MTRRYT
SPECI KRYT 150920Z AUTO 24007KT 8SM -RA BKN010 OVC020 17/15 A2962
RMK AO2 RAB12 P0001 $





000
SAUS41 KLWX 150907
MTRRSP
METAR KRSP 150854Z AUTO 20013G22KT 10SM OVC004 15/14 A2966 RMK AO2
RAE47 CIG 002V007 SLP040 P0002 60003 T01500139 58028 $





000
SAUS41 KLWX 150900
MTRRYT
METAR KRYT 150853Z AUTO 24007KT 190V300 10SM FEW013 OVC020 17/15
A2963 RMK AO2 RAB06E48 SLP026 P0001 60001 T01720150 58028 $





000
SAUS41 KLWX 150859 COR
MTRDMH
METAR KDMH 150854Z AUTO 18/16 A2971 RMK AO1 SLP061 T01780156 56026





000
SAUS41 KLWX 150855
MTRNAK
METAR KNAK 150854Z AUTO 17011G20KT 9SM OVC008 16/15 A2971 RMK AO2
SLP062 T01560150 58027





000
SAUS41 KLWX 150814
MTRNAK
SPECI KNAK 150813Z AUTO 17012G19KT 10SM OVC009 16/15 A2973 RMK AO2
T01610150





000
SAUS41 KLWX 150807
MTRRSP
METAR KRSP 150754Z AUTO 21010G21KT 190V250 10SM -RA OVC009 16/14
A2970 RMK AO2 PK WND 23026/0705 RAB17 CIG 007V013 SLP053 P0001
T01560139 $





000
SAUS41 KLWX 150800
MTRRYT
METAR KRYT 150753Z AUTO VRB05KT 10SM OVC024 18/14 A2967 RMK AO2
RAE02B33E49 SLP036 P0000 T01780144 $





000
SAUS41 KLWX 150759 COR
MTRDMH
METAR KDMH 150754Z AUTO 18/14 A2973 RMK AO1 SLP068 T01780144





000
SAUS41 KLWX 150758 COR
MTRNAK
METAR KNAK 150754Z AUTO 17012G19KT 10SM BKN010 BKN033 OVC040 16/15
A2974 RMK AO2 SLP071 T01610150





000
SAUS41 KLWX 150727
MTRRSP
SPECI KRSP 150714Z AUTO 21013G26KT 180V240 10SM OVC013 16/13 A2972
RMK AO2 PK WND 23026/0705 $





000
SAUS41 KLWX 150707
MTRRSP
METAR KRSP 150654Z AUTO 21012G22KT 10SM OVC015 16/13 A2973 RMK AO2
PK WND 23026/0610 RAE01B27E48 SLP062 P0000 T01610133 $





000
SAUS41 KLWX 150700
MTRRYT
METAR KRYT 150653Z AUTO 23007KT 10SM -RA BKN026 BKN070 OVC095 18/14
A2969 RMK AO2 RAB00E17B52 SLP045 P0000 T01830139 $





000
SAUS41 KLWX 150659 COR
MTRDMH
METAR KDMH 150654Z AUTO 17/14 A2976 RMK AO1 SLP076 T01720139





000
SAUS41 KLWX 150657 COR
MTRNAK
METAR KNAK 150654Z AUTO 17012KT 10SM FEW034 SCT047 17/14 A2976 RMK
AO2 SLP080 T01670144





000
SAUS41 KLWX 150626
MTRRSP
SPECI KRSP 150613Z AUTO 21012G26KT 10SM BKN017 BKN050 OVC085 17/13
A2974 RMK AO2 PK WND 23026/0610 RAE01 P0000 $





000
SAUS41 KLWX 150607
MTRRSP
METAR KRSP 150554Z AUTO 21012G23KT 180V240 7SM -RA FEW019 OVC090
16/13 A2975 RMK AO2 PK WND 23026/0542 RAB08E22B44 SLP070 P0001 60001
T01610128 10183 20161 58023 $





000
SAUS41 KLWX 150600
MTRRYT
METAR KRYT 150553Z AUTO 25007G14KT 10SM BKN100 OVC120 19/13 A2972
RMK AO2 RAB21E32 SLP052 P0000 60000 T01940128 10211 20194 58019 $





000
SAUS41 KLWX 150559 COR
MTRDMH
METAR KDMH 150554Z AUTO 18/16 A2979 RMK AO1 SLP087 P0002 60002
T01830156 10211 20178 58014





000
SAUS41 KLWX 150557 COR
MTRNAK
METAR KNAK 150554Z AUTO 16008KT 10SM OVC050 16/13 A2979 RMK AO2
RAB12E35 SLP089 P0000 60000 T01560133 10189 20150 58017





000
SAUS41 KLWX 150507
MTRRSP
METAR KRSP 150454Z AUTO 20013G25KT 10SM BKN100 OVC110 17/11 A2978
RMK AO2 PK WND 21028/0400 RAE0357 SLP081 P0000 T01720111 402110144 $





000
SAUS41 KLWX 150500
MTRRYT
METAR KRYT 150453Z AUTO 24010G14KT 210V280 10SM BKN110 20/12 A2974
RMK AO2 SLP059 T02000117 402390167 $





000
SAUS41 KLWX 150459 COR
MTRDMH
METAR KDMH 150454Z AUTO 19/13 A2980 RMK AO1 SLP091 T01940133
402670167





000
SAUS41 KLWX 150458 COR
MTRNAK
METAR KNAK 150454Z AUTO 17008KT 10SM OVC060 16/12 A2980 RMK AO2
SLP093 T01610122 402220150





000
SAUS41 KLWX 150407
MTRRSP
METAR KRSP 150354Z AUTO 22012G24KT 10SM -RA BKN080 OVC095 17/11
A2980 RMK AO2 RAB16 SLP088 P0000 T01720106 $





000
SAUS41 KLWX 150400
MTRRYT
METAR KRYT 150353Z AUTO 23010KT 10SM OVC095 21/11 A2976 RMK AO2
SLP069 T02060111 $





000
SAUS41 KLWX 150359 COR
MTRDMH
METAR KDMH 150354Z AUTO 19/13 A2982 RMK AO1 SLP098 T01890133





000
SAUS41 KLWX 150358 COR
MTRNAK
METAR KNAK 150354Z AUTO 17013KT 10SM OVC090 16/13 A2984 RMK AO2
SLP105 T01610128





000
SAUS41 KLWX 150307
MTRRSP
METAR KRSP 150254Z AUTO 21011G23KT 10SM BKN090 BKN110 18/09 A2982
RMK AO2 PK WND 21027/0206 RAE05 SLP095 P0000 60000 T01780094 58005 $





000
SAUS41 KLWX 150300
MTRRYT
METAR KRYT 150253Z AUTO 23007G18KT 170V260 10SM FEW055 OVC090 21/10
A2978 RMK AO2 SLP073 T02060100 58005 $





000
SAUS41 KLWX 150259 COR
MTRDMH
METAR KDMH 150254Z AUTO 19/14 A2983 RMK AO1 SLP101 T01940139 58002





000
SAUS41 KLWX 150258 COR
MTRNAK
METAR KNAK 150254Z AUTO 17012KT 10SM OVC090 17/13 A2984 RMK AO2
SLP106 T01670133 58002





000
SAUS41 KLWX 150207
MTRRSP
METAR KRSP 150154Z AUTO 21008G19KT 10SM -RA OVC090 18/09 A2984 RMK
AO2 RAB38 SLP102 P0000 T01830094 $





000
SAUS41 KLWX 150200
MTRRYT
METAR KRYT 150153Z AUTO 24007KT 190V280 10SM OVC090 21/10 A2979 RMK
AO2 SLP079 T02110100 $





000
SAUS41 KLWX 150159 COR
MTRDMH
METAR KDMH 150154Z AUTO 20/14 A2985 RMK AO1 SLP107 T02000139





000
SAUS41 KLWX 150158 COR
MTRNAK
METAR KNAK 150154Z AUTO 18012KT 10SM CLR 17/13 A2985 RMK AO2 SLP110
T01720133





000
SAUS41 KLWX 150107
MTRRSP
METAR KRSP 150054Z AUTO 20014G23KT 10SM BKN090 OVC110 18/09 A2984
RMK AO2 PK WND 20026/0034 SLP102 T01830094 $





000
SAUS41 KLWX 150100
MTRRYT
METAR KRYT 150053Z AUTO 24009KT 200V260 10SM OVC095 21/11 A2979 RMK
AO2 SLP080 T02110106 $





000
SAUS41 KLWX 150059 COR
MTRDMH
METAR KDMH 150054Z AUTO 20/13 A2985 RMK AO1 SLP107 T02000133





000
SAUS41 KLWX 150058 COR
MTRNAK
METAR KNAK 150054Z AUTO 17013KT 10SM CLR 19/14 A2985 RMK AO2 SLP111
T01890139





000
SAUS41 KLWX 150007
MTRRSP
METAR KRSP 142354Z AUTO 21010G19KT 10SM FEW055 BKN090 OVC110 18/10
A2984 RMK AO2 SLP101 T01830100 10211 20172 56006 $





000
SAUS41 KLWX 150000
MTRRYT
METAR KRYT 142353Z AUTO 22008KT 200V260 10SM FEW075 SCT100 BKN120
21/11 A2979 RMK AO2 SLP079 T02110106 10239 20211 56007 $





000
SAUS41 KLWX 142359 COR
MTRDMH
METAR KDMH 142354Z AUTO 21/12 A2984 RMK AO1 SLP103 T02110117 10267
20211 56005





000
SAUS41 KLWX 142358 COR
MTRNAK
METAR KNAK 142354Z AUTO 17012G18KT 10SM CLR 18/13 A2984 RMK AO2
SLP107 T01830133 10222 20178 58008





000
SAUS41 KLWX 142307
MTRRSP
METAR KRSP 142254Z AUTO 22011G29KT 180V240 10SM FEW065 SCT085 OVC110
19/10 A2984 RMK AO2 PK WND 22029/2250 SLP103 T01890100 $





000
SAUS41 KLWX 142300
MTRRYT
METAR KRYT 142253Z AUTO 24008G18KT 10SM FEW070 SCT095 BKN110 22/11
A2979 RMK AO2 SLP080 T02170106 $





000
SAUS41 KLWX 142259 COR
MTRDMH
METAR KDMH 142254Z AUTO 25/11 A2984 RMK AO1 SLP104 T02500106





000
SAUS41 KLWX 142257
MTRNAK
METAR KNAK 142254Z AUTO 17016G23KT 10SM CLR 18/12 A2986 RMK AO2
SLP112 T01780117





000
SAUS41 KLWX 142207
MTRRSP
METAR KRSP 142154Z AUTO 20013G25KT 10SM CLR 19/09 A2984 RMK AO2 PK
WND 21028/2111 SLP101 T01940094 $





000
SAUS41 KLWX 142200
MTRRYT
METAR KRYT 142153Z AUTO 23009G17KT 10SM CLR 22/11 A2980 RMK AO2
SLP082 T02220106 $





000
SAUS41 KLWX 142159 COR
MTRDMH
METAR KDMH 142154Z AUTO 25/11 A2984 RMK AO1 SLP106 T02500106





000
SAUS41 KLWX 142157 COR
MTRNAK
METAR KNAK 142154Z AUTO 17013G18KT 10SM CLR 19/12 A2986 RMK AO2
SLP113 T01890117





000
SAUS41 KLWX 142107
MTRRSP
METAR KRSP 142054Z AUTO 22016G27KT 10SM CLR 21/09 A2985 RMK AO2 PK
WND 22030/2027 SLP106 T02060089 58016 $





000
SAUS41 KLWX 142100
MTRRYT
METAR KRYT 142053Z AUTO 23011G23KT 10SM CLR 23/10 A2981 RMK AO2
SLP085 T02280100 58015 $





000
SAUS41 KLWX 142059 COR
MTRDMH
METAR KDMH 142054Z AUTO 26/11 A2985 RMK AO1 SLP108 T02560106 58019





000
SAUS41 KLWX 142058 COR
MTRNAK
METAR KNAK 142054Z AUTO 17012G21KT 10SM CLR 21/12 A2987 RMK AO2
SLP116 T02060117 58021





000
SAUS41 KLWX 142057 COR
MTRNAK
METAR KNAK 142054Z AUTO 17012G21KT 10SM CLR 21/12 A2987 RMK AO2
SLP116 T02060117 58021





000
SAUS41 KLWX 142007
MTRRSP
METAR KRSP 141954Z AUTO 24015G29KT 200V270 10SM CLR 21/09 A2987 RMK
AO2 PK WND 21031/1932 SLP111 T02060094 $





000
SAUS41 KLWX 142000
MTRRYT
METAR KRYT 141953Z AUTO 23011G21KT 10SM FEW050 23/11 A2982 RMK AO2
PK WND 23031/1856 SLP089 T02330106 $





000
SAUS41 KLWX 141959 COR
MTRDMH
METAR KDMH 141954Z AUTO 26/11 A2987 RMK AO1 SLP115 T02560111





000
SAUS41 KLWX 141958 COR
MTRNAK
METAR KNAK 141954Z AUTO 17014G21KT 10SM CLR 20/12 A2990 RMK AO2
SLP125 T02000122





000
SAUS41 KLWX 141907
MTRRSP
METAR KRSP 141854Z AUTO 22008G26KT 170V260 10SM FEW040 21/10 A2990
RMK AO2 PK WND 22039/1820 SLP119 T02060100 $





000
SAUS41 KLWX 141900
MTRRYT
METAR KRYT 141853Z AUTO 23011G24KT 10SM FEW049 23/11 A2985 RMK AO2
PK WND 22033/1830 SLP099 T02280111 $





000
SAUS41 KLWX 141859 COR
MTRDMH
METAR KDMH 141854Z AUTO 26/12 A2989 RMK AO1 SLP122 T02560117





000
SAUS41 KLWX 141856
MTRNAK
METAR KNAK 141854Z AUTO 17014G20KT 10SM FEW060 21/13 A2992 RMK AO2
PK WND 16026/1841 SLP132 T02110128





000
SAUS41 KLWX 141807
MTRRSP
METAR KRSP 141754Z AUTO 23016G28KT 180V260 10SM FEW040 21/10 A2990
RMK AO2 PK WND 22032/1736 SLP121 T02060100 10211 20144 55015 $





000
SAUS41 KLWX 141800
MTRRYT
METAR KRYT 141753Z AUTO 23016G29KT 10SM BKN047 23/11 A2986 RMK AO2
PK WND 23032/1656 SLP099 T02330111 10233 20172 56020 $





000
SAUS41 KLWX 141759 COR
MTRDMH
METAR KDMH 141754Z AUTO 25/12 A2991 RMK AO1 SLP127 T02500117 10256
20194 58022





000
SAUS41 KLWX 141758 COR
MTRNAK
METAR KNAK 141754Z AUTO 16017G23KT 10SM BKN055 21/13 A2993 RMK AO2
SLP137 T02110128 10217 20150 58021





000
SAUS41 KLWX 141707
MTRRSP
METAR KRSP 141654Z AUTO 23018G31KT 190V260 10SM CLR 20/11 A2990 RMK
AO2 PK WND 24032/1609 SLP119 T02000106 $





000
SAUS41 KLWX 141700
MTRRYT
METAR KRYT 141653Z AUTO 23014G22KT 10SM SCT040 22/12 A2986 RMK AO2
SLP102 T02220117 $





000
SAUS41 KLWX 141659 COR
MTRDMH
METAR KDMH 141654Z AUTO 24/13 A2994 RMK AO1 SLP138 T02390133





000
SAUS41 KLWX 141658 COR
MTRNAK
METAR KNAK 141654Z AUTO 17011G19KT 10SM SCT048 SCT060 21/14 A2996
RMK AO2 SLP146 T02110139





000
SAUS41 KLWX 141607
MTRRSP
METAR KRSP 141554Z AUTO 24018G27KT 190V260 10SM FEW023 18/11 A2994
RMK AO2 PK WND 22033/1458 SLP134 T01830111 $





000
SAUS41 KLWX 141600
MTRRYT
METAR KRYT 141553Z AUTO 23011G18KT 190V260 10SM FEW036 21/12 A2991
RMK AO2 SLP116 T02060122 $





000
SAUS41 KLWX 141559 COR
MTRDMH
METAR KDMH 141554Z AUTO 22/13 A2997 RMK AO1 SLP148 T02220133





000
SAUS41 KLWX 141558 COR
MTRNAK
METAR KNAK 141554Z AUTO 17011G16KT 10SM BKN040 OVC049 19/13 A2999
RMK AO2 SLP156 T01940133





000
SAUS41 KLWX 141507
MTRRSP
METAR KRSP 141454Z AUTO 22009G26KT 190V260 10SM CLR 18/11 A2995 RMK
AO2 PK WND 22032/1418 SLP137 T01830111 53005 $





000
SAUS41 KLWX 141500
MTRRYT
METAR KRYT 141453Z AUTO 23009G17KT 180V260 10SM FEW037 21/12 A2992
RMK AO2 SLP120 T02060117 53001 $





000
SAUS41 KLWX 141459 COR
MTRDMH
METAR KDMH 141454Z AUTO 22/13 A2997 RMK AO1 SLP149 T02220133 55004





000
SAUS41 KLWX 141456
MTRNAK
METAR KNAK 141454Z AUTO 17012G20KT 10SM BKN037 19/14 A2999 RMK AO2
SLP158 T01940139 55001





000
SAUS41 KLWX 141407
MTRRSP
METAR KRSP 141354Z AUTO 22011G29KT 10SM CLR 17/11 A2994 RMK AO2 PK
WND 21029/1351 SLP135 T01720106 $





000
SAUS41 KLWX 141400
MTRRYT
METAR KRYT 141353Z AUTO VRB06KT 10SM CLR 20/12 A2991 RMK AO2 SLP119
T02000117 $





000
SAUS41 KLWX 141359 COR
MTRDMH
METAR KDMH 141354Z AUTO 22/13 A2997 RMK AO1 SLP149 T02170133





000
SAUS41 KLWX 141358 COR
MTRNAK
METAR KNAK 141354Z AUTO 17013KT 10SM BKN032 21/14 A2999 RMK AO2
SLP157 T02060144





000
SAUS41 KLWX 141307
MTRRSP
METAR KRSP 141254Z AUTO 20010G19KT 10SM CLR 17/11 A2993 RMK AO2
SLP130 T01670106 $





000
SAUS41 KLWX 141300
MTRRYT
METAR KRYT 141253Z AUTO VRB04KT 10SM CLR 19/11 A2990 RMK AO2 SLP116
T01890111 $





000
SAUS41 KLWX 141259 COR
MTRDMH
METAR KDMH 141254Z AUTO 21/13 A2997 RMK AO1 SLP150 T02060133





000
SAUS41 KLWX 141258 COR
MTRNAK
METAR KNAK 141254Z AUTO 18012G21KT 10SM FEW029 19/14 A2999 RMK AO2
SLP156 T01940139





000
SAUS41 KLWX 141207
MTRRSP
METAR KRSP 141154Z AUTO 20012G20KT 10SM CLR 15/10 A2994 RMK AO2 PK
WND 23027/1103 SLP133 T01500100 10183 20144 56003 $





000
SAUS41 KLWX 141201
MTRRYT
METAR KRYT 141153Z AUTO 23005KT 10SM CLR 17/11 A2991 RMK AO2 SLP119
T01720106 10200 20167 53001 $





000
SAUS41 KLWX 141159 COR
MTRDMH
METAR KDMH 141154Z AUTO 19/13 A2999 RMK AO1 SLP153 T01940128 10194
20167 53003





000
SAUS41 KLWX 141156
MTRNAK
METAR KNAK 141154Z AUTO 18008KT 10SM CLR 17/13 A3000 RMK AO2 SLP159
T01720128 10172 20150 53003





000
SAUS41 KLWX 141107
MTRRSP
METAR KRSP 141054Z AUTO 21010G23KT 190V270 10SM CLR 15/10 A2994 RMK
AO2 PK WND 23026/1023 SLP134 T01500100 $





000
SAUS41 KLWX 141100
MTRRYT
METAR KRYT 141053Z AUTO VRB05KT 10SM CLR 17/11 A2991 RMK AO2 SLP119
T01720106 $





000
SAUS41 KLWX 141059 COR
MTRDMH
METAR KDMH 141054Z AUTO 18/12 A2998 RMK AO1 SLP150 T01830122





000
SAUS41 KLWX 141056
MTRNAK
METAR KNAK 141054Z AUTO 17008KT 10SM CLR 16/12 A2998 RMK AO2 SLP154
T01610122





000
SAUS41 KLWX 141007
MTRRSP
METAR KRSP 140954Z AUTO 19011G23KT 130V230 10SM CLR 16/10 A2993 RMK
AO2 PK WND 21027/0918 SLP130 T01560100 $





000
SAUS41 KLWX 141000
MTRRYT
METAR KRYT 140953Z AUTO 23006KT 10SM CLR 18/11 A2990 RMK AO2 SLP115
T01780111 $





000
SAUS41 KLWX 140959 COR
MTRDMH
METAR KDMH 140954Z AUTO 19/12 A2997 RMK AO1 SLP148 T01890122





000
SAUS41 KLWX 140955
MTRNAK
METAR KNAK 140954Z AUTO 17007KT 10SM CLR 17/12 A2998 RMK AO2 SLP154
T01670117





000
SAUS41 KLWX 140907
MTRRSP
METAR KRSP 140854Z AUTO 22009G23KT 190V250 10SM CLR 16/11 A2994 RMK
AO2 PK WND 22031/0813 SLP134 T01560106 56012 $





000
SAUS41 KLWX 140900
MTRRYT
METAR KRYT 140853Z AUTO 23008G14KT 10SM CLR 18/11 A2991 RMK AO2
SLP116 T01830111 56010 $





000
SAUS41 KLWX 140859 COR
MTRDMH
METAR KDMH 140854Z AUTO 18/13 A2998 RMK AO1 SLP150 T01780128 56008





000
SAUS41 KLWX 140856
MTRNAK
METAR KNAK 140854Z AUTO 16005KT 10SM CLR 15/12 A2999 RMK AO2 SLP156
T01500117 55007





000
SAUS41 KLWX 140807
MTRRSP
METAR KRSP 140754Z AUTO 21012G25KT 190V260 10SM CLR 17/11 A2995 RMK
AO2 PK WND 24027/0728 SLP136 T01670106 $





000
SAUS41 KLWX 140800
MTRRYT
METAR KRYT 140753Z AUTO 23004KT 10SM CLR 19/12 A2992 RMK AO2 SLP118
T01890117 $





000
SAUS41 KLWX 140759 COR
MTRDMH
METAR KDMH 140754Z AUTO 17/13 A2998 RMK AO1 SLP150 T01720128





000
SAUS41 KLWX 140755
MTRNAK
METAR KNAK 140754Z AUTO 15007KT 10SM CLR 15/12 A2999 RMK AO2 SLP156
T01500117





000
SAUS41 KLWX 140707
MTRRSP
METAR KRSP 140654Z AUTO 21008G22KT 10SM CLR 18/11 A2996 RMK AO2 PK
WND 20027/0637 SLP137 T01780111 $





000
SAUS41 KLWX 140700
MTRRYT
METAR KRYT 140653Z AUTO 25003KT 10SM CLR 18/11 A2992 RMK AO2 SLP122
T01830111 $





000
SAUS41 KLWX 140659 COR
MTRDMH
METAR KDMH 140654Z AUTO 17/13 A2999 RMK AO1 SLP154 T01720128





000
SAUS41 KLWX 140655
MTRNAK
METAR KNAK 140654Z AUTO 17009KT 10SM CLR 15/12 A3000 RMK AO2 SLP160
T01500122





000
SAUS41 KLWX 140607
MTRRSP
METAR KRSP 140554Z AUTO 22010G26KT 190V260 10SM CLR 18/11 A2998 RMK
AO2 PK WND 23028/0542 SLP145 T01830106 10222 20183 58008 $





000
SAUS41 KLWX 140600
MTRRYT
METAR KRYT 140553Z AUTO 00000KT 10SM CLR 20/11 A2994 RMK AO2 SLP127
T02000111 10244 20194 58004 $





000
SAUS41 KLWX 140559 COR
MTRDMH
METAR KDMH 140554Z AUTO 17/12 A3000 RMK AO1 SLP159 T01720122 10211
20167 58003





000
SAUS41 KLWX 140556
MTRNAK
METAR KNAK 140554Z AUTO 18011KT 10SM CLR 15/12 A3001 RMK AO2 SLP164
T01500122 10183 20150 58002





000
SAUS41 KLWX 140507
MTRRSP
METAR KRSP 140454Z AUTO 22013G24KT 10SM CLR 19/11 A3000 RMK AO2 PK
WND 21029/0429 SLP151 T01890106 402560111 $





000
SAUS41 KLWX 140500
MTRRYT
METAR KRYT 140453Z AUTO 23006KT 10SM CLR 21/11 A2996 RMK AO2 SLP133
T02110111 402720106 $





000
SAUS41 KLWX 140459 COR
MTRDMH
METAR KDMH 140454Z AUTO 17/13 A3001 RMK AO1 SLP163 T01670128
402890133





000
SAUS41 KLWX 140456
MTRNAK
METAR KNAK 140454Z AUTO 17011G16KT 10SM CLR 15/12 A3002 RMK AO2
SLP166 T01500122 402330111





000
SAUS41 KLWX 140407
MTRRSP
METAR KRSP 140354Z AUTO 22011G24KT 10SM CLR 19/11 A3001 RMK AO2 PK
WND 23028/0320 SLP154 T01940106 $





000
SAUS41 KLWX 140400
MTRRYT
METAR KRYT 140353Z AUTO 23011G18KT 10SM CLR 22/11 A2996 RMK AO2
SLP132 T02220111 $





000
SAUS41 KLWX 140359 COR
MTRDMH
METAR KDMH 140354Z AUTO 17/13 A3001 RMK AO1 SLP162 T01720128





000
SAUS41 KLWX 140356
MTRNAK
METAR KNAK 140354Z AUTO 17011KT 10SM CLR 15/12 A3001 RMK AO2 SLP165
T01500122





000
SAUS41 KLWX 140307
MTRRSP
METAR KRSP 140254Z AUTO 22012G25KT 10SM CLR 20/11 A3001 RMK AO2
SLP156 T02000106 50001 $





000
SAUS41 KLWX 140300 COR
MTRDMH
METAR KDMH 140254Z AUTO 18/13 A3001 RMK AO1 SLP162 T01830128 50001





000
SAUS41 KLWX 140300
MTRRYT
METAR KRYT 140253Z AUTO 23007KT 10SM CLR 22/11 A2995 RMK AO2 SLP132
T02220111 50003 $





000
SAUS41 KLWX 140256
MTRNAK
METAR KNAK 140254Z AUTO 17012KT 10SM CLR 15/12 A3002 RMK AO2 SLP166
T01500122 50002





000
SAUS41 KLWX 140207
MTRRSP
METAR KRSP 140154Z AUTO 21009G22KT 10SM CLR 21/09 A3001 RMK AO2
SLP156 T02110094 $





000
SAUS41 KLWX 140200
MTRRYT
METAR KRYT 140153Z AUTO 24006KT 10SM CLR 23/10 A2996 RMK AO2 SLP135
T02330100 $





000
SAUS41 KLWX 140159 COR
MTRDMH
METAR KDMH 140154Z AUTO 19/13 A3001 RMK AO1 SLP163 T01890128





000
SAUS41 KLWX 140156
MTRNAK
METAR KNAK 140154Z AUTO 17012G20KT 10SM CLR 16/12 A3002 RMK AO2
SLP167 T01560122





000
SAUS41 KLWX 140107
MTRRSP
METAR KRSP 140054Z AUTO 22010G21KT 190V250 10SM CLR 22/09 A3001 RMK
AO2 SLP155 T02170089 $





000
SAUS41 KLWX 140100
MTRRYT
METAR KRYT 140053Z AUTO 23007KT 180V270 10SM CLR 24/10 A2995 RMK AO2
SLP134 T02440100 $





000
SAUS41 KLWX 140059 COR
MTRDMH
METAR KDMH 140054Z AUTO 19/13 A3001 RMK AO1 SLP163 T01940128





000
SAUS41 KLWX 140055
MTRNAK
METAR KNAK 140054Z AUTO 17015G24KT 10SM CLR 17/13 A3002 RMK AO2 PK
WND 16029/0025 SLP167 T01670128





000
SAUS41 KLWX 140007
MTRRSP
METAR KRSP 132354Z AUTO 20012G20KT 10SM CLR 22/09 A3000 RMK AO2
SLP156 T02220089 10256 20222 50000 $





000
SAUS41 KLWX 140000
MTRRYT
METAR KRYT 132353Z AUTO 24008KT 190V270 10SM CLR 24/10 A2994 RMK AO2
SLP134 T02440100 10272 20244 58000 $





000
SAUS41 KLWX 132359 COR
MTRDMH
METAR KDMH 132354Z AUTO 21/13 A3001 RMK AO1 SLP160 T02110128 10289
20211 53004





000
SAUS41 KLWX 132356
MTRNAK
METAR KNAK 132354Z AUTO 17015G29KT 10SM CLR 18/13 A3001 RMK AO2 PK
WND 17031/2313 SLP164 T01830128 10233 20183 55001





000
SAUS41 KLWX 132307
MTRRSP
METAR KRSP 132254Z AUTO 22014G22KT 10SM CLR 23/09 A3000 RMK AO2
SLP157 T02330089 $





000
SAUS41 KLWX 132300
MTRRYT
METAR KRYT 132253Z AUTO 25008G16KT 10SM CLR 26/10 A2994 RMK AO2
SLP133 T02610100 $





000
SAUS41 KLWX 132259 COR
MTRDMH
METAR KDMH 132254Z AUTO 23/12 A2999 RMK AO1 SLP156 T02280122





000
SAUS41 KLWX 132255
MTRNAK
METAR KNAK 132254Z AUTO 17018G25KT 10SM CLR 19/13 A3001 RMK AO2 PK
WND 18028/2244 SLP163 T01940133





000
SAUS41 KLWX 132207
MTRRSP
METAR KRSP 132154Z AUTO 22013G24KT 10SM CLR 24/09 A3001 RMK AO2
SLP159 T02390089 $





000
SAUS41 KLWX 132200
MTRRYT
METAR KRYT 132153Z AUTO 25008KT 10SM CLR 27/10 A2995 RMK AO2 SLP133
T02670100 $





000
SAUS41 KLWX 132159 COR
MTRDMH
METAR KDMH 132154Z AUTO 24/12 A2999 RMK AO1 SLP155 T02440122





000
SAUS41 KLWX 132156
MTRNAK
METAR KNAK 132154Z AUTO 17018G27KT 10SM CLR 20/12 A3000 RMK AO2 PK
WND 17027/2151 SLP162 T02000122





000
SAUS41 KLWX 132107
MTRRSP
METAR KRSP 132054Z AUTO 23015G24KT 10SM CLR 24/09 A3000 RMK AO2 PK
WND 22030/2004 SLP156 T02440089 56015 $





000
SAUS41 KLWX 132100
MTRRYT
METAR KRYT 132053Z AUTO 22010G17KT 170V260 10SM CLR 27/10 A2994 RMK
AO2 SLP132 T02720100 56018 $





000
SAUS41 KLWX 132059 COR
MTRDMH
METAR KDMH 132054Z AUTO 26/12 A2999 RMK AO1 SLP157 T02560122 56018





000
SAUS41 KLWX 132055
MTRNAK
METAR KNAK 132054Z AUTO 17017G26KT 10SM CLR 22/13 A3001 RMK AO2 PK
WND 17026/2046 SLP165 T02220133 56019





000
SAUS41 KLWX 132007
MTRRSP
METAR KRSP 131954Z AUTO 20011G20KT 10SM CLR 26/08 A3001 RMK AO2
SLP158 T02560083 $





000
SAUS41 KLWX 132000
MTRRYT
METAR KRYT 131953Z AUTO VRB05KT 10SM CLR 27/10 A2995 RMK AO2 SLP134
T02670100 $





000
SAUS41 KLWX 131959 COR
MTRDMH
METAR KDMH 131954Z AUTO 27/12 A3000 RMK AO1 SLP158 T02670122





000
SAUS41 KLWX 131955
MTRNAK
METAR KNAK 131954Z AUTO 17017G24KT 10SM CLR 23/13 A3002 RMK AO2
SLP168 T02280133





000
SAUS41 KLWX 131907
MTRRSP
METAR KRSP 131854Z AUTO 19011G23KT 170V230 10SM CLR 25/09 A3002 RMK
AO2 SLP162 T02500089 $





000
SAUS41 KLWX 131900
MTRRYT
METAR KRYT 131853Z AUTO 24010G19KT 200V260 10SM CLR 26/11 A2997 RMK
AO2 SLP139 T02610111 $





000
SAUS41 KLWX 131859 COR
MTRDMH
METAR KDMH 131854Z AUTO 28/12 A3002 RMK AO1 SLP164 T02780122





000
SAUS41 KLWX 131856
MTRNAK
METAR KNAK 131854Z AUTO 17012G18KT 10SM CLR 23/13 A3004 RMK AO2 PK
WND 16026/1817 SLP175 T02280133





000
SAUS41 KLWX 131807
MTRRSP
METAR KRSP 131754Z AUTO 19009G17KT 10SM CLR 23/10 A3005 RMK AO2
SLP173 T02280100 10233 20150 58024 $





000
SAUS41 KLWX 131800 COR
MTRDMH
METAR KDMH 131754Z AUTO 24/13 A3005 RMK AO1 SLP174 T02440128 10244
20139 58028





000
SAUS41 KLWX 131800
MTRRYT
METAR KRYT 131753Z AUTO 00000KT 10SM CLR 25/12 A3000 RMK AO2 SLP151
T02500122 10250 20122 56028 $





000
SAUS41 KLWX 131755
MTRNAK
METAR KNAK 131754Z AUTO 17015G22KT 10SM CLR 23/13 A3007 RMK AO2
SLP183 T02280128 10233 20133 56023





000
SAUS41 KLWX 131707
MTRRSP
METAR KRSP 131654Z AUTO 15005KT 10SM CLR 22/11 A3008 RMK AO2 SLP183
T02220111 $





000
SAUS41 KLWX 131700
MTRRYT
METAR KRYT 131653Z AUTO VRB03KT 10SM CLR 23/12 A3003 RMK AO2 SLP160
T02330117 $





000
SAUS41 KLWX 131659 COR
MTRDMH
METAR KDMH 131654Z AUTO 24/13 A3008 RMK AO1 SLP184 T02390128





000
SAUS41 KLWX 131656
MTRNAK
METAR KNAK 131654Z AUTO 16010KT 10SM CLR 22/13 A3008 RMK AO2 SLP189
T02220128





000
SAUS41 KLWX 131606
MTRRSP
METAR KRSP 131554Z AUTO 23007G16KT 10SM CLR 22/08 A3010 RMK AO2
SLP191 T02170083 $





000
SAUS41 KLWX 131600
MTRRYT
METAR KRYT 131553Z AUTO 04005KT 10SM CLR 23/12 A3006 RMK AO2 SLP169
T02280117 $





000
SAUS41 KLWX 131559 COR
MTRDMH
METAR KDMH 131554Z AUTO 23/12 A3010 RMK AO1 SLP193 T02330122





000
SAUS41 KLWX 131555
MTRNAK
METAR KNAK 131554Z AUTO 15009KT 9SM CLR 17/12 A3011 RMK AO2 SLP199
T01670122





000
SAUS41 KLWX 131507
MTRRSP
METAR KRSP 131454Z AUTO 26007G15KT 10SM BKN070 19/08 A3013 RMK AO2
SLP200 T01890083 53001 $





000
SAUS41 KLWX 131501 COR
MTRDMH
METAR KDMH 131454Z AUTO 22/12 A3013 RMK AO1 SLP202 T02170122 58010





000
SAUS41 KLWX 131500
MTRRYT
METAR KRYT 131453Z AUTO VRB05KT 10SM BKN075 BKN085 22/09 A3009 RMK
AO2 SLP181 T02170089 56006 $





000
SAUS41 KLWX 131455
MTRNAK
METAR KNAK 131454Z AUTO 12009KT 8SM CLR 14/12 A3013 RMK AO2 SLP206
T01440117 58006





000
SAUS41 KLWX 131407
MTRRSP
METAR KRSP 131354Z AUTO 25010G16KT 10SM CLR 19/08 A3012 RMK AO2
SLP197 T01940078 $





000
SAUS41 KLWX 131400
MTRRYT
METAR KRYT 131353Z AUTO 02003KT 10SM BKN080 18/10 A3009 RMK AO2
SLP182 T01830100 $





000
SAUS41 KLWX 131359 COR
MTRDMH
METAR KDMH 131354Z AUTO 18/12 A3014 RMK AO1 SLP205 T01830122





000
SAUS41 KLWX 131356
MTRNAK
METAR KNAK 131354Z AUTO 12009KT 7SM CLR 14/12 A3015 RMK AO2 SLP210
T01390117





000
SAUS41 KLWX 131306
MTRRSP
METAR KRSP 131254Z AUTO 25007KT 210V270 10SM BKN080 18/08 A3013 RMK
AO2 SLP200 T01780083 $





000
SAUS41 KLWX 131300
MTRRYT
METAR KRYT 131253Z AUTO 00000KT 10SM BKN090 15/10 A3010 RMK AO2
SLP189 T01500100 $





000
SAUS41 KLWX 131259 COR
MTRDMH
METAR KDMH 131254Z AUTO 15/12 A3016 RMK AO1 SLP212 T01500122





000
SAUS41 KLWX 131255
MTRNAK
METAR KNAK 131254Z AUTO 16006KT 8SM CLR 14/12 A3015 RMK AO2 SLP213
T01440117





000
SAUS41 KLWX 131207
MTRRSP
METAR KRSP 131154Z AUTO 25005KT 10SM BKN090 15/09 A3012 RMK AO2
SLP200 T01500089 10150 20111 51008 $





000
SAUS41 KLWX 131200
MTRRYT
METAR KRYT 131153Z AUTO 00000KT 10SM SCT100 12/09 A3010 RMK AO2
SLP191 T01170089 10150 20106 51007 $





000
SAUS41 KLWX 131159 COR
MTRDMH
METAR KDMH 131154Z AUTO 14/12 A3016 RMK AO1 SLP213 T01390117 10139
20133 53007





000
SAUS41 KLWX 131156
MTRNAK
METAR KNAK 131154Z AUTO 17005KT 5SM BR CLR 13/12 A3015 RMK AO2
SLP213 T01330117 10133 20111 53007





000
SAUS41 KLWX 131107
MTRRSP
METAR KRSP 131054Z AUTO 22006KT 10SM SCT080 13/09 A3012 RMK AO2
SLP198 T01280089 $





000
SAUS41 KLWX 131100
MTRRYT
METAR KRYT 131053Z AUTO 00000KT 10SM SCT110 11/08 A3010 RMK AO2
SLP188 T01060078 $





000
SAUS41 KLWX 131058
MTRDMH
METAR KDMH 131054Z AUTO 13/11 A3015 RMK AO1 SLP209 T01330111





000
SAUS41 KLWX 131055
MTRNAK
METAR KNAK 131054Z AUTO 14005KT 3SM BR CLR 12/11 A3015 RMK AO2
SLP211 T01170106





000
SAUS41 KLWX 131007
MTRRSP
METAR KRSP 130954Z AUTO 21006KT 10SM BKN100 12/08 A3011 RMK AO2
SLP199 T01170083 $





000
SAUS41 KLWX 131000
MTRRYT
METAR KRYT 130953Z AUTO 00000KT 10SM CLR 12/08 A3009 RMK AO2 SLP186
T01220083 $





000
SAUS41 KLWX 130959 COR
MTRDMH
METAR KDMH 130954Z AUTO 13/12 A3014 RMK AO1 SLP205 T01330117





000
SAUS41 KLWX 130955
MTRNAK
METAR KNAK 130954Z AUTO 00000KT 4SM BR CLR 12/11 A3014 RMK AO2
SLP207 T01170106





000
SAUS41 KLWX 130935
MTRNAK
SPECI KNAK 130934Z AUTO 00000KT 4SM BR SCT008 12/11 A3013 RMK AO2
T01170106





000
SAUS41 KLWX 130909
MTRNAK
SPECI KNAK 130908Z AUTO 11004KT 6SM BR OVC008 12/11 A3013 RMK AO2
T01220111





000
SAUS41 KLWX 130907
MTRRSP
METAR KRSP 130854Z AUTO 19006KT 10SM CLR 12/08 A3010 RMK AO2 SLP193
T01170083 56006 $





000
SAUS41 KLWX 130900
MTRRYT
METAR KRYT 130853Z AUTO 00000KT 10SM CLR 12/08 A3008 RMK AO2 SLP181
T01220083 56005 $





000
SAUS41 KLWX 130859 COR
MTRDMH
METAR KDMH 130854Z AUTO 14/11 A3014 RMK AO1 SLP205 T01390111 56006





000
SAUS41 KLWX 130856
MTRNAK
METAR KNAK 130854Z AUTO 10003KT 6SM BR OVC010 12/11 A3013 RMK AO2
SLP206 T01220106 56004





000
SAUS41 KLWX 130807
MTRRSP
METAR KRSP 130754Z AUTO 19010G17KT 10SM CLR 12/08 A3010 RMK AO2
SLP195 T01170083 $





000
SAUS41 KLWX 130800
MTRRYT
METAR KRYT 130753Z AUTO 00000KT 10SM CLR 13/08 A3009 RMK AO2 SLP184
T01330083 $





000
SAUS41 KLWX 130759 COR
MTRDMH
METAR KDMH 130754Z AUTO 14/11 A3015 RMK AO1 SLP209 T01390106





000
SAUS41 KLWX 130756
MTRNAK
METAR KNAK 130754Z AUTO 00000KT 7SM OVC012 13/11 A3014 RMK AO2
SLP206 T01280106





000
SAUS41 KLWX 130707
MTRRSP
METAR KRSP 130654Z AUTO 19012G18KT 10SM CLR 13/08 A3010 RMK AO2
SLP194 T01280083 $





000
SAUS41 KLWX 130700
MTRRYT
METAR KRYT 130653Z AUTO VRB04KT 10SM CLR 15/09 A3009 RMK AO2 SLP183
T01500089 $





000
SAUS41 KLWX 130659 COR
MTRDMH
METAR KDMH 130654Z AUTO 13/11 A3015 RMK AO1 SLP208 T01330106





000
SAUS41 KLWX 130655
MTRNAK
METAR KNAK 130654Z AUTO 18003KT 7SM BKN014 12/10 A3013 RMK AO2
SLP205 T01170100





000
SAUS41 KLWX 130607
MTRRSP
METAR KRSP 130554Z AUTO 19010G24KT 10SM CLR 13/08 A3012 RMK AO2
SLP200 T01280083 10178 20128 56010 $





000
SAUS41 KLWX 130600
MTRRYT
METAR KRYT 130553Z AUTO VRB04KT 10SM CLR 15/08 A3010 RMK AO2 SLP187
T01500078 10189 20144 56008 $





000
SAUS41 KLWX 130559 COR
MTRDMH
METAR KDMH 130554Z AUTO 14/10 A3016 RMK AO1 SLP211 T01390100 10200
20139 58008





000
SAUS41 KLWX 130555
MTRNAK
METAR KNAK 130554Z AUTO 14005KT 7SM CLR 13/11 A3015 RMK AO2 SLP210
T01280106 10172 20128 58009





000
SAUS41 KLWX 130506
MTRRSP
METAR KRSP 130454Z AUTO 20011G24KT 10SM CLR 14/07 A3013 RMK AO2
SLP204 T01390072 402000083 $





000
SAUS41 KLWX 130500 COR
MTRDMH
METAR KDMH 130454Z AUTO 15/10 A3017 RMK AO1 SLP216 T01500100
402220139





000
SAUS41 KLWX 130500
MTRRYT
METAR KRYT 130453Z AUTO 00000KT 10SM CLR 15/05 A3011 RMK AO2 SLP190
T01500050 402170078 $





000
SAUS41 KLWX 130455
MTRNAK
METAR KNAK 130454Z AUTO 16004KT 8SM CLR 13/10 A3016 RMK AO2 SLP216
T01280100 401890111





    US Dept of Commerce
    National Oceanic and Atmospheric Administration
    National Weather Service
    1325 East West Highway
    Silver Spring, MD 20910
    Page Author: NWS Internet Services Team
Disclaimer
Information Quality
Credits
Glossary
Privacy Policy
Freedom of Information Act (FOIA)
About Us
Career Opportunities